Time;durP1;ratioP1;P1;durP2;ratioP2;P2;SDS_P1;SDS_P2;PMS_P1;PMS_P2;Temp;Humidity;BMP_temperature;BMP_pressure;BME280_temperature;BME280_humidity;BME280_pressure;Samples;Min_cycle;Max_cycle;Signal;HPM_P1;HPM_P2
2021/08/24 00:00:14;;;;;;;65.55;35.97;;;;;;;;;;5111640;28;20530;-46
2021/08/24 00:02:40;;;;;;;70.40;39.38;;;;;;;;;;5111695;28;20020;-44
2021/08/24 00:05:07;;;;;;;69.93;37.60;;;;;;;;;;5111879;28;20020;-45
2021/08/24 00:07:33;;;;;;;61.90;35.13;;;;;;;;;;5111664;28;20026;-45
2021/08/24 00:09:59;;;;;;;57.75;34.35;;;;;;;;;;5111660;28;20020;-47
2021/08/24 00:12:25;;;;;;;57.47;34.85;;;;;;;;;;5111625;28;20024;-44
2021/08/24 00:14:51;;;;;;;52.20;31.27;;;;;;;;;;5111628;28;20027;-45
2021/08/24 00:17:17;;;;;;;65.40;35.85;;;;;;;;;;5106153;28;20123;-46
2021/08/24 00:19:44;;;;;;;69.95;36.88;;;;;;;;;;5093514;28;20064;-45
2021/08/24 00:22:10;;;;;;;61.92;33.92;;;;;;;;;;5094928;28;20024;-46
2021/08/24 00:24:36;;;;;;;53.17;32.42;;;;;;;;;;5095037;28;20065;-46
2021/08/24 00:27:02;;;;;;;59.63;33.25;;;;;;;;;;5095006;28;20021;-44
2021/08/24 00:29:28;;;;;;;51.35;30.58;;;;;;;;;;5079620;28;20021;-45
2021/08/24 00:31:54;;;;;;;46.17;27.52;;;;;;;;;;5074598;28;20531;-45
2021/08/24 00:34:20;;;;;;;51.85;27.90;;;;;;;;;;5074659;28;20056;-48
2021/08/24 00:36:46;;;;;;;47.20;25.23;;;;;;;;;;5056542;28;20381;-47
2021/08/24 00:39:12;;;;;;;45.55;25.10;;;;;;;;;;5056696;28;20032;-46
2021/08/24 00:41:38;;;;;;;40.58;24.80;;;;;;;;;;5074512;28;20040;-45
2021/08/24 00:44:05;;;;;;;45.63;26.95;;;;;;;;;;5056752;28;20032;-45
2021/08/24 00:46:41;;;;;;;44.58;26.45;;;;;;;;;;5074689;28;20025;-45
2021/08/24 00:49:16;;;;;;;44.05;25.63;;;;;;;;;;5074380;28;20024;-48
2021/08/24 00:51:45;;;;;;;41.92;23.95;;;;;;;;;;5074323;28;20388;-46
2021/08/24 00:54:12;;;;;;;41.33;25.45;;;;;;;;;;5074270;28;20475;-45
2021/08/24 00:56:39;;;;;;;46.30;26.30;;;;;;;;;;5056407;28;20020;-45
2021/08/24 00:59:05;;;;;;;39.80;23.95;;;;;;;;;;5074145;28;20512;-46
2021/08/24 01:01:31;;;;;;;40.72;24.90;;;;;;;;;;5073999;28;20056;-48
2021/08/24 01:03:59;;;;;;;40.60;25.17;;;;;;;;;;5074092;28;20027;-45
2021/08/24 01:06:42;;;;;;;43.70;26.30;;;;;;;;;;5073965;28;20031;-46
2021/08/24 01:09:14;;;;;;;42.35;26.45;;;;;;;;;;5073999;28;20025;-46
2021/08/24 01:11:58;;;;;;;42.20;25.55;;;;;;;;;;5073893;28;20025;-49
2021/08/24 01:14:43;;;;;;;42.90;24.83;;;;;;;;;;5073842;28;20029;-47
2021/08/24 01:17:16;;;;;;;38.45;21.83;;;;;;;;;;5077499;28;20043;-47
2021/08/24 01:20:01;;;;;;;39.83;23.35;;;;;;;;;;5094360;28;20106;-50
2021/08/24 01:22:27;;;;;;;;;;;;;;;;;;5094397;28;20111;-49
2021/08/24 01:24:57;;;;;;;41.17;22.55;;;;;;;;;;5094053;28;20465;-46
2021/08/24 01:27:28;;;;;;;39.17;23.38;;;;;;;;;;5093929;28;20032;-50
2021/08/24 01:30:07;;;;;;;33.88;20.83;;;;;;;;;;5093909;28;20507;-46
2021/08/24 01:32:47;;;;;;;34.65;21.50;;;;;;;;;;5093336;28;20099;-46
2021/08/24 01:35:21;;;;;;;36.70;22.23;;;;;;;;;;5093730;28;20054;-47
2021/08/24 01:38:05;;;;;;;39.03;23.15;;;;;;;;;;5093727;28;20036;-48
2021/08/24 01:40:45;;;;;;;40.40;23.85;;;;;;;;;;5093620;28;20123;-49
2021/08/24 01:43:13;;;;;;;34.95;22.08;;;;;;;;;;5093631;28;20024;-47
2021/08/24 01:45:41;;;;;;;35.88;22.63;;;;;;;;;;5093680;28;20016;-47
2021/08/24 01:48:15;;;;;;;43.00;22.40;;;;;;;;;;5093649;28;20059;-46
2021/08/24 01:50:47;;;;;;;36.92;21.40;;;;;;;;;;5093642;28;20048;-49
2021/08/24 01:53:19;;;;;;;38.08;21.60;;;;;;;;;;5093474;28;20028;-46
2021/08/24 01:55:47;;;;;;;36.67;22.70;;;;;;;;;;5093359;28;20028;-46
2021/08/24 01:58:17;;;;;;;38.00;23.90;;;;;;;;;;5093325;28;20107;-45
2021/08/24 02:00:46;;;;;;;42.05;23.23;;;;;;;;;;5093320;28;20036;-46
2021/08/24 02:03:13;;;;;;;38.67;23.02;;;;;;;;;;5093199;28;20063;-47
2021/08/24 02:05:47;;;;;;;38.42;23.58;;;;;;;;;;5093283;28;20525;-49
2021/08/24 02:08:29;;;;;;;40.05;22.80;;;;;;;;;;5093005;28;20028;-47
2021/08/24 02:10:57;;;;;;;43.65;24.30;;;;;;;;;;5093056;28;20035;-46
2021/08/24 02:13:26;;;;;;;41.95;25.00;;;;;;;;;;5092915;28;20028;-45
2021/08/24 02:15:54;;;;;;;42.08;25.10;;;;;;;;;;5093040;28;20093;-45
2021/08/24 02:18:24;;;;;;;39.42;24.85;;;;;;;;;;5074637;28;20048;-46
2021/08/24 02:20:56;;;;;;;39.45;22.90;;;;;;;;;;5092656;28;20060;-47
2021/08/24 02:23:24;;;;;;;42.85;24.95;;;;;;;;;;5092763;28;20020;-47
2021/08/24 02:25:53;;;;;;;38.58;24.65;;;;;;;;;;5092669;28;20137;-49
2021/08/24 02:28:28;;;;;;;44.67;25.60;;;;;;;;;;5092633;28;20564;-48
2021/08/24 02:30:58;;;;;;;41.78;25.55;;;;;;;;;;5092599;28;20024;-45
2021/08/24 02:33:28;;;;;;;45.83;25.23;;;;;;;;;;5092652;28;20027;-45
2021/08/24 02:35:56;;;;;;;41.08;24.25;;;;;;;;;;5092476;28;20032;-45
2021/08/24 02:38:30;;;;;;;45.13;24.55;;;;;;;;;;5092513;28;20488;-47
2021/08/24 02:41:08;;;;;;;37.83;24.50;;;;;;;;;;5092372;28;20050;-50
2021/08/24 02:43:34;;;;;;;40.17;24.73;;;;;;;;;;5091416;28;20070;-48
2021/08/24 02:46:26;;;;;;;37.17;23.50;;;;;;;;;;5092432;28;20024;-46
2021/08/24 02:48:54;;;;;;;38.17;25.38;;;;;;;;;;5088685;28;20040;-46
2021/08/24 02:51:21;;;;;;;43.08;24.90;;;;;;;;;;5092319;28;20112;-47
2021/08/24 02:54:04;;;;;;;44.80;25.50;;;;;;;;;;5092224;28;20113;-46
2021/08/24 02:56:30;;;;;;;41.53;25.63;;;;;;;;;;5092169;28;20020;-44
2021/08/24 02:58:56;;;;;;;37.30;23.50;;;;;;;;;;5092109;28;20027;-45
2021/08/24 03:01:22;;;;;;;37.85;23.75;;;;;;;;;;5092037;28;20021;-47
2021/08/24 03:03:48;;;;;;;40.22;24.02;;;;;;;;;;5092177;28;20366;-46
2021/08/24 03:06:14;;;;;;;44.88;25.17;;;;;;;;;;5091970;28;20026;-45
2021/08/24 03:08:40;;;;;;;41.08;24.38;;;;;;;;;;5092010;28;20103;-45
2021/08/24 03:11:06;;;;;;;40.78;22.52;;;;;;;;;;5091830;28;20031;-47
2021/08/24 03:13:53;;;;;;;38.20;22.75;;;;;;;;;;5092013;28;20384;-47
2021/08/24 03:16:23;;;;;;;40.45;23.02;;;;;;;;;;5073954;28;20094;-45
2021/08/24 03:18:56;;;;;;;38.97;25.85;;;;;;;;;;5091775;28;20055;-46
2021/08/24 03:21:30;;;;;;;39.70;23.02;;;;;;;;;;5091798;28;20072;-48
2021/08/24 03:23:57;;;;;;;38.85;22.70;;;;;;;;;;5091772;28;20024;-46
2021/08/24 03:26:24;;;;;;;35.63;21.83;;;;;;;;;;5091714;28;20049;-46
2021/08/24 03:28:51;;;;;;;40.08;24.95;;;;;;;;;;5091746;28;20469;-47
2021/08/24 03:31:18;;;;;;;38.72;23.75;;;;;;;;;;5091740;28;20031;-49
2021/08/24 03:33:44;;;;;;;45.47;26.58;;;;;;;;;;5091763;28;20111;-45
2021/08/24 03:36:10;;;;;;;43.35;25.58;;;;;;;;;;5091685;28;20107;-45
2021/08/24 03:38:38;;;;;;;42.33;25.67;;;;;;;;;;5091703;28;20518;-46
2021/08/24 03:41:08;;;;;;;37.22;24.02;;;;;;;;;;5091827;28;20051;-45
2021/08/24 03:43:34;;;;;;;36.30;22.55;;;;;;;;;;5091595;28;20028;-49
2021/08/24 03:46:00;;;;;;;42.40;23.92;;;;;;;;;;5091658;28;20024;-47
2021/08/24 03:48:26;;;;;;;37.30;22.13;;;;;;;;;;5091630;28;20035;-48
2021/08/24 03:50:52;;;;;;;38.45;23.63;;;;;;;;;;5091528;28;20024;-49
2021/08/24 03:53:18;;;;;;;40.17;23.90;;;;;;;;;;5091548;28;20028;-47
2021/08/24 03:55:44;;;;;;;38.45;23.75;;;;;;;;;;5095436;28;20035;-47
2021/08/24 03:58:10;;;;;;;32.17;21.05;;;;;;;;;;5095444;28;20035;-48
2021/08/24 04:00:36;;;;;;;34.40;23.23;;;;;;;;;;5095462;28;20028;-45
2021/08/24 04:03:02;;;;;;;34.70;21.48;;;;;;;;;;5099382;28;20027;-49
2021/08/24 04:05:28;;;;;;;39.20;21.80;;;;;;;;;;5101954;28;20392;-48
2021/08/24 04:07:54;;;;;;;41.00;24.17;;;;;;;;;;5111958;28;20046;-46
2021/08/24 04:10:20;;;;;;;36.65;21.95;;;;;;;;;;5101041;28;20024;-46
2021/08/24 04:12:46;;;;;;;39.08;22.63;;;;;;;;;;5095337;28;20070;-46
2021/08/24 04:15:12;;;;;;;36.00;22.85;;;;;;;;;;5095260;28;20016;-48
2021/08/24 04:17:39;;;;;;;42.13;23.65;;;;;;;;;;5087074;28;20048;-45
2021/08/24 04:20:06;;;;;;;43.40;21.60;;;;;;;;;;5074924;28;20056;-46
2021/08/24 04:22:33;;;;;;;35.13;20.90;;;;;;;;;;5074713;28;20028;-46
2021/08/24 04:24:59;;;;;;;34.92;20.83;;;;;;;;;;5074933;28;20397;-47
2021/08/24 04:27:25;;;;;;;36.45;21.83;;;;;;;;;;5074806;28;20021;-49
2021/08/24 04:29:51;;;;;;;36.05;22.83;;;;;;;;;;5074873;28;20366;-47
2021/08/24 04:32:29;;;;;;;33.67;21.08;;;;;;;;;;5074809;28;20397;-48
2021/08/24 04:34:55;;;;;;;32.38;20.70;;;;;;;;;;5079674;28;20051;-49
2021/08/24 04:37:21;;;;;;;38.50;21.98;;;;;;;;;;5091035;28;20024;-46
2021/08/24 04:39:47;;;;;;;35.78;21.52;;;;;;;;;;5094737;28;20024;-47
2021/08/24 04:42:14;;;;;;;33.92;21.95;;;;;;;;;;5094564;28;20510;-46
2021/08/24 04:44:40;;;;;;;35.25;21.27;;;;;;;;;;5094500;28;20016;-46
2021/08/24 04:47:06;;;;;;;35.88;21.52;;;;;;;;;;5081504;28;20032;-46
2021/08/24 04:49:32;;;;;;;33.80;21.98;;;;;;;;;;5086666;28;20025;-44
2021/08/24 04:51:59;;;;;;;32.55;20.85;;;;;;;;;;5087338;28;20480;-46
2021/08/24 04:54:25;;;;;;;31.85;20.83;;;;;;;;;;5094518;28;20031;-45
2021/08/24 04:56:51;;;;;;;34.90;21.77;;;;;;;;;;5089604;28;20036;-47
2021/08/24 04:59:17;;;;;;;35.53;21.42;;;;;;;;;;5081731;28;20024;-47
2021/08/24 05:01:43;;;;;;;31.27;18.35;;;;;;;;;;5067108;28;20416;-49
2021/08/24 05:04:09;;;;;;;24.60;16.42;;;;;;;;;;5082202;28;20094;-48
2021/08/24 05:06:35;;;;;;;26.98;16.90;;;;;;;;;;5085474;28;20488;-47
2021/08/24 05:09:02;;;;;;;30.45;16.65;;;;;;;;;;5076407;28;20728;-45
2021/08/24 05:11:28;;;;;;;29.67;17.15;;;;;;;;;;5076247;28;20024;-47
2021/08/24 05:13:54;;;;;;;37.47;20.83;;;;;;;;;;5094024;28;20036;-47
2021/08/24 05:16:20;;;;;;;32.65;19.33;;;;;;;;;;5075913;28;20027;-47
2021/08/24 05:18:46;;;;;;;32.47;18.75;;;;;;;;;;5111733;28;20368;-46
2021/08/24 05:21:13;;;;;;;30.17;17.25;;;;;;;;;;5114347;28;20028;-47
2021/08/24 05:23:39;;;;;;;32.47;16.95;;;;;;;;;;5104044;28;20542;-46
2021/08/24 05:26:24;;;;;;;30.98;16.75;;;;;;;;;;5102741;28;20016;-47
2021/08/24 05:28:50;;;;;;;20.70;14.00;;;;;;;;;;5094328;28;20503;-47
2021/08/24 05:31:16;;;;;;;24.33;13.60;;;;;;;;;;5107369;28;20045;-47
2021/08/24 05:33:42;;;;;;;27.23;14.55;;;;;;;;;;5093759;28;20027;-48
2021/08/24 05:36:11;;;;;;;22.48;12.52;;;;;;;;;;5104950;28;20059;-47
2021/08/24 05:38:37;;;;;;;16.63;11.63;;;;;;;;;;5102848;28;20032;-46
2021/08/24 05:41:04;;;;;;;17.13;10.20;;;;;;;;;;5093682;28;20081;-50
2021/08/24 05:43:30;;;;;;;14.25;10.15;;;;;;;;;;5093520;28;20553;-47
2021/08/24 05:45:57;;;;;;;12.15;8.70;;;;;;;;;;5092840;28;20218;-48
2021/08/24 05:48:24;;;;;;;15.50;8.52;;;;;;;;;;5092275;28;20020;-46
2021/08/24 05:50:50;;;;;;;12.27;8.35;;;;;;;;;;5106601;28;20065;-46
2021/08/24 05:53:16;;;;;;;10.77;7.60;;;;;;;;;;5112062;28;20111;-46
2021/08/24 05:55:42;;;;;;;10.57;6.57;;;;;;;;;;5111326;28;20031;-47
2021/08/24 05:58:08;;;;;;;9.35;6.72;;;;;;;;;;5111378;28;20401;-47
2021/08/24 06:00:35;;;;;;;10.32;7.10;;;;;;;;;;5110378;28;20153;-47
2021/08/24 06:03:01;;;;;;;9.70;6.80;;;;;;;;;;5110661;28;20016;-49
2021/08/24 06:05:27;;;;;;;8.10;6.05;;;;;;;;;;5110715;28;20034;-49
2021/08/24 06:07:53;;;;;;;15.15;6.65;;;;;;;;;;5110650;28;20054;-49
2021/08/24 06:10:19;;;;;;;9.32;6.80;;;;;;;;;;5111269;28;20529;-46
2021/08/24 06:12:46;;;;;;;9.68;6.75;;;;;;;;;;5111786;28;20020;-48
2021/08/24 06:15:14;;;;;;;11.90;6.93;;;;;;;;;;5111912;28;20094;-48
2021/08/24 06:17:41;;;;;;;10.40;6.80;;;;;;;;;;5106234;28;20039;-50
2021/08/24 06:20:07;;;;;;;11.95;6.15;;;;;;;;;;5102942;28;20034;-46
2021/08/24 06:22:34;;;;;;;10.93;5.88;;;;;;;;;;5100615;28;20020;-49
2021/08/24 06:25:00;;;;;;;9.20;5.88;;;;;;;;;;5065986;28;20043;-49
2021/08/24 06:27:27;;;;;;;7.30;5.45;;;;;;;;;;5102417;28;20024;-49
2021/08/24 06:29:53;;;;;;;9.57;5.82;;;;;;;;;;5101241;28;20025;-50
2021/08/24 06:32:29;;;;;;;7.05;4.75;;;;;;;;;;5101303;28;20508;-49
2021/08/24 06:34:55;;;;;;;13.38;5.05;;;;;;;;;;5099435;28;20028;-47
2021/08/24 06:37:21;;;;;;;5.13;4.15;;;;;;;;;;5100788;28;20022;-51
2021/08/24 06:39:47;;;;;;;7.38;4.10;;;;;;;;;;5101936;28;20395;-48
2021/08/24 06:42:13;;;;;;;5.53;4.38;;;;;;;;;;5100692;28;20024;-51
2021/08/24 06:44:39;;;;;;;5.63;4.03;;;;;;;;;;5099282;28;20016;-49
2021/08/24 06:47:05;;;;;;;4.43;3.40;;;;;;;;;;5100114;28;20028;-47
2021/08/24 06:49:31;;;;;;;4.32;3.70;;;;;;;;;;5101884;28;20392;-48
2021/08/24 06:51:59;;;;;;;4.15;3.75;;;;;;;;;;5099635;28;20028;-47
2021/08/24 06:54:25;;;;;;;7.95;4.30;;;;;;;;;;5092212;28;20473;-52
2021/08/24 06:56:51;;;;;;;9.63;5.30;;;;;;;;;;5092341;28;20537;-50
2021/08/24 06:59:17;;;;;;;6.35;5.28;;;;;;;;;;5074095;28;20118;-51
2021/08/24 07:01:44;;;;;;;8.48;6.22;;;;;;;;;;5092264;28;20032;-49
2021/08/24 07:04:10;;;;;;;9.57;6.45;;;;;;;;;;5092362;28;20031;-45
2021/08/24 07:06:36;;;;;;;8.73;5.97;;;;;;;;;;5092135;28;20114;-47
2021/08/24 07:09:03;;;;;;;10.75;6.30;;;;;;;;;;5092244;28;20031;-50
2021/08/24 07:11:29;;;;;;;8.15;6.47;;;;;;;;;;5092337;28;20016;-48
2021/08/24 07:13:59;;;;;;;9.23;6.57;;;;;;;;;;5092226;28;20103;-47
2021/08/24 07:16:25;;;;;;;11.75;7.35;;;;;;;;;;5092264;28;20032;-50
2021/08/24 07:18:52;;;;;;;9.50;6.78;;;;;;;;;;5097337;28;20494;-50
2021/08/24 07:21:19;;;;;;;9.07;6.60;;;;;;;;;;5099454;28;20028;-52
2021/08/24 07:23:46;;;;;;;10.68;6.40;;;;;;;;;;5092203;28;20377;-50
2021/08/24 07:26:12;;;;;;;12.63;7.18;;;;;;;;;;5091958;28;20020;-49
2021/08/24 07:28:39;;;;;;;8.70;6.72;;;;;;;;;;5091035;28;20028;-47
2021/08/24 07:31:05;;;;;;;9.68;6.15;;;;;;;;;;5092100;28;20024;-48
2021/08/24 07:33:31;;;;;;;11.10;6.30;;;;;;;;;;5091661;28;20051;-47
2021/08/24 07:35:57;;;;;;;10.05;5.88;;;;;;;;;;5091857;28;20028;-53
2021/08/24 07:38:24;;;;;;;8.02;6.00;;;;;;;;;;5091973;28;20436;-45
2021/08/24 07:40:50;;;;;;;7.90;5.07;;;;;;;;;;5091527;28;20116;-50
2021/08/24 07:43:16;;;;;;;8.88;5.80;;;;;;;;;;5091585;28;20107;-48
2021/08/24 07:45:42;;;;;;;7.60;5.32;;;;;;;;;;5091632;28;20070;-46
2021/08/24 07:48:08;;;;;;;6.47;5.00;;;;;;;;;;5091658;28;20016;-47
2021/08/24 07:50:35;;;;;;;8.30;5.13;;;;;;;;;;5091498;28;20457;-50
2021/08/24 07:53:01;;;;;;;5.35;4.15;;;;;;;;;;5091545;28;20020;-50
2021/08/24 07:55:27;;;;;;;6.45;4.40;;;;;;;;;;5091696;28;20024;-45
2021/08/24 07:57:53;;;;;;;5.05;3.90;;;;;;;;;;5091532;28;20020;-46
2021/08/24 08:00:19;;;;;;;6.60;3.92;;;;;;;;;;5091392;28;20100;-47
2021/08/24 08:02:46;;;;;;;5.50;4.22;;;;;;;;;;5091381;28;20073;-47
2021/08/24 08:05:13;;;;;;;4.85;4.20;;;;;;;;;;5091357;28;20024;-47
2021/08/24 08:07:39;;;;;;;4.78;3.65;;;;;;;;;;5091428;28;20093;-47
2021/08/24 08:10:05;;;;;;;4.47;3.70;;;;;;;;;;5091139;28;20081;-50
2021/08/24 08:12:31;;;;;;;4.63;4.00;;;;;;;;;;5091195;28;20024;-47
2021/08/24 08:14:57;;;;;;;4.85;3.75;;;;;;;;;;5091193;28;20020;-47
2021/08/24 08:17:23;;;;;;;6.68;3.72;;;;;;;;;;5090864;28;20036;-48
2021/08/24 08:19:50;;;;;;;3.30;3.00;;;;;;;;;;5090925;28;20028;-46
2021/08/24 08:22:16;;;;;;;4.07;3.65;;;;;;;;;;5089743;28;20066;-47
2021/08/24 08:24:42;;;;;;;5.90;3.55;;;;;;;;;;5091009;28;20023;-46
2021/08/24 08:27:08;;;;;;;3.65;3.22;;;;;;;;;;5091397;28;20032;-49
2021/08/24 08:29:35;;;;;;;3.88;3.58;;;;;;;;;;5091412;28;20027;-48
2021/08/24 08:32:04;;;;;;;4.07;3.45;;;;;;;;;;5091436;28;20032;-49
2021/08/24 08:34:30;;;;;;;6.55;3.20;;;;;;;;;;5091026;28;20139;-49
2021/08/24 08:36:56;;;;;;;3.33;3.03;;;;;;;;;;5091146;28;20031;-46
2021/08/24 08:39:22;;;;;;;4.45;3.38;;;;;;;;;;5091215;28;20032;-46
2021/08/24 08:41:54;;;;;;;5.78;3.17;;;;;;;;;;5094975;28;20028;-48
2021/08/24 08:44:39;;;;;;;4.25;3.42;;;;;;;;;;5094677;28;20016;-49
2021/08/24 08:47:14;;;;;;;4.07;3.35;;;;;;;;;;5094763;28;20032;-45
2021/08/24 08:49:43;;;;;;;4.93;3.42;;;;;;;;;;5094557;28;20020;-48
2021/08/24 08:52:22;;;;;;;4.57;3.67;;;;;;;;;;5094383;28;20024;-46
2021/08/24 08:54:57;;;;;;;4.28;3.33;;;;;;;;;;5094696;28;20039;-48
2021/08/24 08:57:29;;;;;;;6.60;3.33;;;;;;;;;;5094287;28;20469;-48
2021/08/24 09:00:01;;;;;;;5.50;4.88;;;;;;;;;;5094417;28;20023;-48
2021/08/24 09:02:35;;;;;;;3.83;3.30;;;;;;;;;;5094559;28;20031;-48
2021/08/24 09:05:03;;;;;;;5.45;3.47;;;;;;;;;;5094360;28;20109;-51
2021/08/24 09:07:40;;;;;;;3.80;3.25;;;;;;;;;;5094387;28;20126;-49
2021/08/24 09:10:08;;;;;;;4.75;3.25;;;;;;;;;;5094342;28;20089;-47
2021/08/24 09:12:36;;;;;;;4.25;3.38;;;;;;;;;;5094055;28;20480;-49
2021/08/24 09:15:04;;;;;;;4.82;3.72;;;;;;;;;;5094233;28;20023;-53
2021/08/24 09:17:36;;;;;;;3.17;2.88;;;;;;;;;;5092780;28;20040;-48
2021/08/24 09:20:02;;;;;;;5.40;3.65;;;;;;;;;;5094020;28;20036;-49
2021/08/24 09:22:28;;;;;;;5.60;3.88;;;;;;;;;;5093849;28;20031;-47
2021/08/24 09:24:54;;;;;;;3.85;3.42;;;;;;;;;;5094081;28;20434;-47
2021/08/24 09:27:26;;;;;;;3.22;2.92;;;;;;;;;;5094258;28;20028;-47
2021/08/24 09:29:52;;;;;;;3.67;2.95;;;;;;;;;;5093886;28;20027;-47
2021/08/24 09:32:20;;;;;;;3.92;3.35;;;;;;;;;;5093848;28;20032;-51
2021/08/24 09:34:47;;;;;;;3.92;3.22;;;;;;;;;;5093786;28;20028;-50
2021/08/24 09:37:16;;;;;;;3.53;2.97;;;;;;;;;;5093722;28;20054;-47
2021/08/24 09:39:56;;;;;;;6.13;2.67;;;;;;;;;;5093868;28;20070;-47
2021/08/24 09:42:28;;;;;;;3.38;3.08;;;;;;;;;;5093785;28;20532;-49
2021/08/24 09:44:54;;;;;;;2.97;2.67;;;;;;;;;;5093417;28;20028;-48
2021/08/24 09:47:22;;;;;;;3.00;2.70;;;;;;;;;;5093414;28;20020;-48
2021/08/24 09:49:48;;;;;;;3.88;2.85;;;;;;;;;;5093434;28;20020;-46
2021/08/24 09:52:22;;;;;;;3.33;2.90;;;;;;;;;;5092800;28;20069;-49
2021/08/24 09:54:58;;;;;;;2.97;2.75;;;;;;;;;;5093344;28;20511;-49
2021/08/24 09:57:26;;;;;;;5.55;3.10;;;;;;;;;;5093534;28;20043;-49
2021/08/24 10:00:18;;;;;;;3.63;2.90;;;;;;;;;;5093270;28;20433;-46
2021/08/24 10:02:45;;;;;;;2.72;2.53;;;;;;;;;;5062318;28;20047;-48
2021/08/24 10:05:13;;;;;;;4.30;2.85;;;;;;;;;;5091777;28;20051;-47
2021/08/24 10:07:41;;;;;;;4.28;2.55;;;;;;;;;;5093018;28;20077;-49
2021/08/24 10:10:20;;;;;;;2.80;2.60;;;;;;;;;;5092908;28;20028;-46
2021/08/24 10:12:51;;;;;;;3.88;3.42;;;;;;;;;;5091798;28;20107;-47
2021/08/24 10:15:36;;;;;;;5.00;2.85;;;;;;;;;;5093106;28;20028;-48
2021/08/24 10:18:14;;;;;;;5.25;2.95;;;;;;;;;;5092660;28;20373;-48
2021/08/24 10:20:40;;;;;;;4.72;2.95;;;;;;;;;;5092601;28;20032;-46
2021/08/24 10:23:15;;;;;;;2.50;2.28;;;;;;;;;;5092631;28;20077;-47
2021/08/24 10:25:49;;;;;;;2.42;2.28;;;;;;;;;;5092647;28;20047;-48
2021/08/24 10:28:23;;;;;;;2.75;2.53;;;;;;;;;;5092562;28;20411;-48
2021/08/24 10:30:52;;;;;;;2.45;2.25;;;;;;;;;;5092604;28;20030;-49
2021/08/24 10:33:21;;;;;;;3.65;2.50;;;;;;;;;;5092357;28;20107;-46
2021/08/24 10:35:51;;;;;;;3.63;2.30;;;;;;;;;;5092397;28;20023;-48
2021/08/24 10:38:17;;;;;;;4.20;2.45;;;;;;;;;;5092528;28;20050;-46
2021/08/24 10:40:45;;;;;;;5.68;2.58;;;;;;;;;;5092307;28;20052;-53
2021/08/24 10:43:14;;;;;;;3.50;2.70;;;;;;;;;;5092219;28;20423;-48
2021/08/24 10:46:01;;;;;;;3.22;2.75;;;;;;;;;;5092172;28;20069;-50
2021/08/24 10:48:31;;;;;;;2.70;2.50;;;;;;;;;;5092151;28;20434;-47
2021/08/24 10:51:09;;;;;;;6.65;2.95;;;;;;;;;;5092227;28;20051;-50
2021/08/24 10:53:47;;;;;;;3.97;2.67;;;;;;;;;;5092036;28;20112;-47
2021/08/24 10:56:26;;;;;;;3.50;2.35;;;;;;;;;;5092249;28;20085;-51
2021/08/24 10:58:56;;;;;;;3.40;2.78;;;;;;;;;;5092060;28;20476;-51
2021/08/24 11:01:32;;;;;;;4.45;2.80;;;;;;;;;;5091887;28;20537;-48
2021/08/24 11:04:01;;;;;;;2.42;2.25;;;;;;;;;;5091124;28;20020;-47
2021/08/24 11:06:27;;;;;;;2.55;2.35;;;;;;;;;;5092382;28;20059;-49
2021/08/24 11:09:03;;;;;;;5.40;2.85;;;;;;;;;;5091993;28;20028;-47
2021/08/24 11:11:46;;;;;;;2.85;2.33;;;;;;;;;;5091872;28;20016;-47
2021/08/24 11:14:18;;;;;;;5.68;3.05;;;;;;;;;;5090572;28;20497;-46
2021/08/24 11:16:54;;;;;;;4.70;3.33;;;;;;;;;;5091752;28;20422;-47
2021/08/24 11:19:28;;;;;;;2.63;2.42;;;;;;;;;;5091894;28;20055;-47
2021/08/24 11:22:13;;;;;;;2.40;2.20;;;;;;;;;;5091646;28;20047;-47
2021/08/24 11:24:42;;;;;;;4.03;2.28;;;;;;;;;;5091629;28;20023;-49
2021/08/24 11:27:41;;;;;;;2.47;2.25;;;;;;;;;;5091465;28;20158;-49
2021/08/24 11:30:27;;;;;;;3.20;2.65;;;;;;;;;;5047584;28;20033;-48
2021/08/24 11:32:58;;;;;;;3.50;2.58;;;;;;;;;;5091310;28;20174;-50
2021/08/24 11:35:29;;;;;;;3.13;2.75;;;;;;;;;;5091565;28;20474;-49
2021/08/24 11:38:00;;;;;;;5.18;3.08;;;;;;;;;;5091534;28;20028;-49
2021/08/24 11:40:32;;;;;;;3.17;2.40;;;;;;;;;;5091307;28;20481;-50
2021/08/24 11:43:01;;;;;;;2.85;2.55;;;;;;;;;;5091274;28;20052;-46
2021/08/24 11:45:30;;;;;;;4.20;2.90;;;;;;;;;;5091289;28;20020;-49
2021/08/24 11:48:01;;;;;;;3.53;2.60;;;;;;;;;;5091383;28;20020;-49
2021/08/24 11:50:36;;;;;;;3.00;2.75;;;;;;;;;;5091637;28;20031;-47
2021/08/24 11:53:11;;;;;;;4.65;2.60;;;;;;;;;;5091376;28;20435;-46
2021/08/24 11:55:41;;;;;;;2.83;2.30;;;;;;;;;;5091351;28;20031;-49
2021/08/24 11:58:11;;;;;;;2.60;2.40;;;;;;;;;;5091225;28;20054;-48
2021/08/24 12:00:38;;;;;;;6.28;3.17;;;;;;;;;;5091389;28;20024;-48
2021/08/24 12:03:09;;;;;;;2.85;2.35;;;;;;;;;;5091522;28;20554;-47
2021/08/24 12:05:42;;;;;;;4.07;2.53;;;;;;;;;;5091263;28;20032;-48
2021/08/24 12:08:10;;;;;;;2.80;2.60;;;;;;;;;;5091180;28;20024;-49
2021/08/24 12:11:01;;;;;;;3.00;2.80;;;;;;;;;;5091162;28;20020;-47
2021/08/24 12:13:29;;;;;;;2.75;2.55;;;;;;;;;;5091120;28;20389;-47
2021/08/24 12:16:08;;;;;;;3.15;2.85;;;;;;;;;;5093425;28;20052;-47
2021/08/24 12:18:34;;;;;;;2.50;2.33;;;;;;;;;;5095147;28;20048;-48
2021/08/24 12:21:22;;;;;;;2.50;2.30;;;;;;;;;;5094941;28;20028;-47
2021/08/24 12:23:48;;;;;;;2.83;2.50;;;;;;;;;;5095097;28;20050;-47
2021/08/24 12:26:22;;;;;;;3.13;2.20;;;;;;;;;;5102652;28;20062;-48
2021/08/24 12:28:48;;;;;;;3.33;2.83;;;;;;;;;;5106563;28;20032;-48
2021/08/24 12:31:23;;;;;;;2.90;2.67;;;;;;;;;;5113429;28;20028;-47
2021/08/24 12:33:49;;;;;;;3.42;2.60;;;;;;;;;;5111807;28;20030;-46
2021/08/24 12:36:24;;;;;;;4.25;2.85;;;;;;;;;;5113550;28;20019;-47
2021/08/24 12:38:51;;;;;;;2.13;1.85;;;;;;;;;;5111758;28;20020;-46
2021/08/24 12:41:32;;;;;;;2.42;2.22;;;;;;;;;;5113579;28;20023;-49
2021/08/24 12:44:10;;;;;;;4.78;2.67;;;;;;;;;;5112924;28;20073;-51
2021/08/24 12:46:36;;;;;;;6.60;2.38;;;;;;;;;;5112405;28;20030;-46
2021/08/24 12:49:19;;;;;;;2.70;2.50;;;;;;;;;;5113467;28;20038;-51
2021/08/24 12:51:46;;;;;;;2.40;2.28;;;;;;;;;;5110893;28;20095;-51
2021/08/24 12:54:13;;;;;;;2.75;2.50;;;;;;;;;;5113115;28;20039;-48
2021/08/24 12:56:41;;;;;;;2.90;2.30;;;;;;;;;;5113132;28;20035;-46
2021/08/24 12:59:08;;;;;;;2.35;2.15;;;;;;;;;;5113618;28;20027;-47
2021/08/24 13:01:34;;;;;;;3.20;2.50;;;;;;;;;;5113188;28;20031;-48
2021/08/24 13:04:19;;;;;;;2.38;2.17;;;;;;;;;;5113341;28;20016;-47
2021/08/24 13:06:48;;;;;;;3.40;2.35;;;;;;;;;;5110465;28;20015;-46
2021/08/24 13:09:33;;;;;;;2.15;2.03;;;;;;;;;;5113444;28;20028;-49
2021/08/24 13:12:08;;;;;;;3.38;2.10;;;;;;;;;;5112437;28;20094;-49
2021/08/24 13:14:51;;;;;;;2.22;2.03;;;;;;;;;;5111723;28;20016;-47
2021/08/24 13:17:23;;;;;;;2.45;2.25;;;;;;;;;;5112193;28;20035;-47
2021/08/24 13:19:51;;;;;;;4.00;2.40;;;;;;;;;;5110724;28;20051;-47
2021/08/24 13:22:22;;;;;;;3.08;2.10;;;;;;;;;;5112895;28;20028;-50
2021/08/24 13:24:49;;;;;;;2.50;2.20;;;;;;;;;;5092234;28;20476;-47
2021/08/24 13:27:18;;;;;;;2.95;2.20;;;;;;;;;;5111950;28;20439;-50
2021/08/24 13:29:44;;;;;;;2.45;2.25;;;;;;;;;;5092162;28;20024;-47
2021/08/24 13:32:25;;;;;;;2.50;2.20;;;;;;;;;;5112187;28;20027;-50
2021/08/24 13:34:56;;;;;;;3.47;1.95;;;;;;;;;;5112744;28;20028;-51
2021/08/24 13:37:34;;;;;;;3.05;2.20;;;;;;;;;;5112670;28;20020;-51
2021/08/24 13:40:05;;;;;;;2.35;2.15;;;;;;;;;;5110940;28;20016;-48
2021/08/24 13:42:32;;;;;;;4.32;2.30;;;;;;;;;;5112707;28;20028;-50
2021/08/24 13:44:58;;;;;;;4.03;2.40;;;;;;;;;;5112516;28;20016;-48
2021/08/24 13:47:25;;;;;;;3.42;3.13;;;;;;;;;;5112568;28;20048;-52
2021/08/24 13:49:55;;;;;;;3.55;2.40;;;;;;;;;;5112350;28;20528;-48
2021/08/24 13:52:25;;;;;;;3.10;2.60;;;;;;;;;;5112836;28;20051;-47
2021/08/24 13:54:52;;;;;;;3.88;2.90;;;;;;;;;;5113810;28;20028;-47
2021/08/24 13:57:23;;;;;;;4.57;2.72;;;;;;;;;;5113758;28;20028;-48
2021/08/24 13:59:57;;;;;;;2.55;2.35;;;;;;;;;;5113841;28;20031;-47
2021/08/24 14:02:25;;;;;;;3.35;3.03;;;;;;;;;;5113473;28;20460;-50
2021/08/24 14:04:51;;;;;;;3.90;2.60;;;;;;;;;;5113504;28;20027;-50
2021/08/24 14:07:28;;;;;;;3.17;2.97;;;;;;;;;;5113586;28;20065;-47
2021/08/24 14:10:03;;;;;;;4.40;3.20;;;;;;;;;;5113458;28;20038;-47
2021/08/24 14:12:38;;;;;;;3.72;3.42;;;;;;;;;;5113439;28;20103;-47
2021/08/24 14:15:13;;;;;;;2.80;2.60;;;;;;;;;;5113390;28;20076;-50
2021/08/24 14:17:48;;;;;;;3.53;3.22;;;;;;;;;;5112958;28;20097;-51
2021/08/24 14:20:33;;;;;;;2.67;2.50;;;;;;;;;;5113289;28;20035;-51
2021/08/24 14:23:22;;;;;;;4.55;3.22;;;;;;;;;;5112871;28;20027;-47
2021/08/24 14:25:49;;;;;;;3.95;3.53;;;;;;;;;;5100099;28;20043;-47
2021/08/24 14:28:19;;;;;;;3.35;3.15;;;;;;;;;;5113124;28;20496;-47
2021/08/24 14:30:46;;;;;;;3.80;2.95;;;;;;;;;;5113198;28;20016;-48
2021/08/24 14:33:39;;;;;;;2.90;2.70;;;;;;;;;;5113017;28;20019;-48
2021/08/24 14:36:26;;;;;;;4.28;3.10;;;;;;;;;;5102851;28;20032;-48
2021/08/24 14:38:57;;;;;;;6.15;3.28;;;;;;;;;;5077463;28;20032;-48
2021/08/24 14:41:23;;;;;;;2.88;2.67;;;;;;;;;;5112570;28;20032;-48
2021/08/24 14:43:54;;;;;;;3.42;3.13;;;;;;;;;;5112863;28;20023;-50
2021/08/24 14:46:21;;;;;;;3.47;2.65;;;;;;;;;;5112846;28;20111;-50
2021/08/24 14:48:50;;;;;;;3.00;2.28;;;;;;;;;;5112582;28;20499;-47